Terminal Aerodrome Forecast
Issued by NWS

Home | Current Version | Previous Version | Text Only | Print | Product List | Glossary On
Versions: 1 2 3 4 5 6 7 8 9 10 11 12
582
FTUS42 TJSJ 241120
TAFISX
TAF
TISX 241120Z 2412/2512 06005KT P6SM VCSH FEW022 SCT040
     FM241400 09009KT P6SM SCT030
     FM241800 11011KT P6SM VCSH SCT025 SCT040
     FM242330 07005KT P6SM FEW022 SCT050
      AMD NOT SKED=

USA.gov is the U.S. government's official web portal to all federal, state and local government web resources and services.